Seychelles International Airport, Seychelles

3:48 PM +04 on December 11, 2019 (GMT +0400)
Seychelles | | Change Station

Elev 10 ft 4.67 °S, 55.52 °E | Updated 1 hour ago

Scattered Clouds
Scattered Clouds
86 °F
Feels Like 99 °F
N
5
Wind Variable Wind from North

Today
High -- | Low -- °F
--% Chance of Precip.
Yesterday
High -- | Low -- °F
Precip. -- in
Pressure 29.80 in
Visibility 6.2 miles
Clouds Scattered Clouds 2100 ft
Heat Index 99 °F
Dew Point 79 °F
Humidity 79%
Rainfall 0.00 in
Snow Depth Not available.
5:59 AM 6:22 PM
Waxing Gibbous, 99% visible
METAR FSIA 111000Z 36004KT 340V040 9999 SCT021 30/26 Q1009 NOSIG
Pressure 29.80 in
Visibility 6.2 miles
Clouds Scattered Clouds 2100 ft
Heat Index 99 °F
Dew Point 79 °F
Humidity 79%
Rainfall 0.00 in
Snow Depth Not available.
5:59 AM 6:22 PM
Waxing Gibbous, 99% visible
METAR FSIA 111000Z 36004KT 340V040 9999 SCT021 30/26 Q1009 NOSIG

Get Severe Weather Alerts

Thanks for signing up!

Be on the lookout for a verification email in your inbox.

You'll start receiving the daily forecast at 6 AM.

×

10-Day Weather Forecast

No radar image for this location.
×

Almanac

Astronomy

Dec. 11, 2019 Rise Set
Actual Time
Civil Twilight
Nautical Twilight
Astronomical Twilight
Moon
Length of Visible Light
Length of Day
Tomorrow will be .
, % of the Moon is Illuminated

Today's Extremes

Country Highs Country Lows

Community

WunderPhotos

Category 6

Welcome to Category 6. This is the collective home for Weather Underground's featured writeups by Dr. Jeff Masters (right), Bob Henson (left), Chris Burt, and other regular contributors.

Nearby

Air Quality

  Air Quality AQ Index Pollutant
Not available.

Snow Depth

Station Depth Elevation

Earthquake Activity

City Distance Mag. Time & Date
Minimum magnitude displayed is 2.5.

Coastal Water Temperatures

Place Temperature

Stations

Nearby Weather Stations

Station Location Temp. Windchill Dew Point Humidity Wind Precip. Elev Updated Type